sensor_id;sensor_type;location;lat;lon;timestamp;P1;durP1;ratioP1;P2;durP2;ratioP2
8319;SDS011;4197;42.130;24.746;2023-12-07T00:00:48;35.50;;;19.73;;
8319;SDS011;4197;42.130;24.746;2023-12-07T00:03:16;33.20;;;19.17;;
8319;SDS011;4197;42.130;24.746;2023-12-07T00:05:45;33.50;;;19.50;;
8319;SDS011;4197;42.130;24.746;2023-12-07T00:08:13;34.77;;;19.87;;
8319;SDS011;4197;42.130;24.746;2023-12-07T00:10:43;35.07;;;18.07;;
8319;SDS011;4197;42.130;24.746;2023-12-07T00:13:11;32.00;;;17.97;;
8319;SDS011;4197;42.130;24.746;2023-12-07T00:15:40;33.37;;;19.30;;
8319;SDS011;4197;42.130;24.746;2023-12-07T00:18:08;27.00;;;18.07;;
8319;SDS011;4197;42.130;24.746;2023-12-07T00:20:37;30.13;;;17.77;;
8319;SDS011;4197;42.130;24.746;2023-12-07T00:23:05;30.40;;;18.80;;
8319;SDS011;4197;42.130;24.746;2023-12-07T00:25:34;29.70;;;18.13;;
8319;SDS011;4197;42.130;24.746;2023-12-07T00:28:03;26.67;;;16.53;;
8319;SDS011;4197;42.130;24.746;2023-12-07T00:30:32;34.67;;;19.97;;
8319;SDS011;4197;42.130;24.746;2023-12-07T00:33:02;34.17;;;18.90;;
8319;SDS011;4197;42.130;24.746;2023-12-07T00:35:30;27.13;;;18.30;;
8319;SDS011;4197;42.130;24.746;2023-12-07T00:37:58;23.77;;;16.77;;
8319;SDS011;4197;42.130;24.746;2023-12-07T00:40:27;29.80;;;17.80;;
8319;SDS011;4197;42.130;24.746;2023-12-07T00:42:55;29.70;;;17.13;;
8319;SDS011;4197;42.130;24.746;2023-12-07T00:45:26;28.63;;;17.10;;
8319;SDS011;4197;42.130;24.746;2023-12-07T00:47:55;29.47;;;18.13;;
8319;SDS011;4197;42.130;24.746;2023-12-07T00:50:24;29.70;;;18.00;;
8319;SDS011;4197;42.130;24.746;2023-12-07T00:52:52;28.43;;;18.20;;
8319;SDS011;4197;42.130;24.746;2023-12-07T00:55:21;27.97;;;17.33;;
8319;SDS011;4197;42.130;24.746;2023-12-07T00:57:49;35.63;;;19.80;;
8319;SDS011;4197;42.130;24.746;2023-12-07T01:00:17;25.57;;;17.37;;
8319;SDS011;4197;42.130;24.746;2023-12-07T01:02:47;26.60;;;16.07;;
8319;SDS011;4197;42.130;24.746;2023-12-07T01:05:16;25.40;;;15.93;;
8319;SDS011;4197;42.130;24.746;2023-12-07T01:07:44;23.03;;;14.17;;
8319;SDS011;4197;42.130;24.746;2023-12-07T01:10:13;24.43;;;15.57;;
8319;SDS011;4197;42.130;24.746;2023-12-07T01:12:41;21.73;;;14.83;;
8319;SDS011;4197;42.130;24.746;2023-12-07T01:15:10;23.13;;;14.57;;
8319;SDS011;4197;42.130;24.746;2023-12-07T01:17:38;22.20;;;15.70;;
8319;SDS011;4197;42.130;24.746;2023-12-07T01:20:08;23.40;;;15.20;;
8319;SDS011;4197;42.130;24.746;2023-12-07T01:22:39;24.70;;;16.20;;
8319;SDS011;4197;42.130;24.746;2023-12-07T01:25:08;22.73;;;15.53;;
8319;SDS011;4197;42.130;24.746;2023-12-07T01:27:37;24.30;;;15.70;;
8319;SDS011;4197;42.130;24.746;2023-12-07T01:30:06;25.80;;;15.73;;
8319;SDS011;4197;42.130;24.746;2023-12-07T01:32:35;22.37;;;15.93;;
8319;SDS011;4197;42.130;24.746;2023-12-07T01:35:06;25.83;;;15.43;;
8319;SDS011;4197;42.130;24.746;2023-12-07T01:37:37;27.73;;;16.70;;
8319;SDS011;4197;42.130;24.746;2023-12-07T01:40:09;24.10;;;15.87;;
8319;SDS011;4197;42.130;24.746;2023-12-07T01:42:43;24.63;;;16.13;;
8319;SDS011;4197;42.130;24.746;2023-12-07T01:45:17;24.47;;;16.70;;
8319;SDS011;4197;42.130;24.746;2023-12-07T01:47:46;31.30;;;19.13;;
8319;SDS011;4197;42.130;24.746;2023-12-07T01:50:18;27.67;;;17.50;;
8319;SDS011;4197;42.130;24.746;2023-12-07T01:52:52;30.20;;;18.40;;
8319;SDS011;4197;42.130;24.746;2023-12-07T01:55:25;28.57;;;18.07;;
8319;SDS011;4197;42.130;24.746;2023-12-07T01:57:55;29.43;;;17.60;;
8319;SDS011;4197;42.130;24.746;2023-12-07T02:00:23;26.60;;;17.67;;
8319;SDS011;4197;42.130;24.746;2023-12-07T02:02:55;28.03;;;18.17;;
8319;SDS011;4197;42.130;24.746;2023-12-07T02:05:24;30.80;;;18.07;;
8319;SDS011;4197;42.130;24.746;2023-12-07T02:07:54;27.87;;;17.00;;
8319;SDS011;4197;42.130;24.746;2023-12-07T02:10:22;27.33;;;17.17;;
8319;SDS011;4197;42.130;24.746;2023-12-07T02:12:51;29.97;;;17.97;;
8319;SDS011;4197;42.130;24.746;2023-12-07T02:15:21;25.17;;;17.27;;
8319;SDS011;4197;42.130;24.746;2023-12-07T02:17:49;28.70;;;17.67;;
8319;SDS011;4197;42.130;24.746;2023-12-07T02:20:28;27.13;;;17.27;;
8319;SDS011;4197;42.130;24.746;2023-12-07T02:23:00;30.03;;;17.47;;
8319;SDS011;4197;42.130;24.746;2023-12-07T02:25:32;31.40;;;17.20;;
8319;SDS011;4197;42.130;24.746;2023-12-07T02:28:06;27.23;;;17.20;;
8319;SDS011;4197;42.130;24.746;2023-12-07T02:30:34;26.53;;;16.70;;
8319;SDS011;4197;42.130;24.746;2023-12-07T02:33:03;29.50;;;17.33;;
8319;SDS011;4197;42.130;24.746;2023-12-07T02:35:33;29.67;;;17.67;;
8319;SDS011;4197;42.130;24.746;2023-12-07T02:38:03;29.90;;;17.77;;
8319;SDS011;4197;42.130;24.746;2023-12-07T02:40:33;27.43;;;17.07;;
8319;SDS011;4197;42.130;24.746;2023-12-07T02:43:03;28.60;;;17.50;;
8319;SDS011;4197;42.130;24.746;2023-12-07T02:45:33;26.37;;;17.43;;
8319;SDS011;4197;42.130;24.746;2023-12-07T02:48:01;29.03;;;18.17;;
8319;SDS011;4197;42.130;24.746;2023-12-07T02:50:30;33.57;;;16.43;;
8319;SDS011;4197;42.130;24.746;2023-12-07T02:52:59;26.30;;;16.30;;
8319;SDS011;4197;42.130;24.746;2023-12-07T02:55:27;29.50;;;17.50;;
8319;SDS011;4197;42.130;24.746;2023-12-07T02:57:55;29.37;;;17.07;;
8319;SDS011;4197;42.130;24.746;2023-12-07T03:00:24;23.57;;;16.00;;
8319;SDS011;4197;42.130;24.746;2023-12-07T03:02:53;27.77;;;17.23;;
8319;SDS011;4197;42.130;24.746;2023-12-07T03:05:22;28.43;;;17.37;;
8319;SDS011;4197;42.130;24.746;2023-12-07T03:07:50;24.50;;;16.50;;
8319;SDS011;4197;42.130;24.746;2023-12-07T03:10:19;24.20;;;16.23;;
8319;SDS011;4197;42.130;24.746;2023-12-07T03:12:47;30.17;;;17.70;;
8319;SDS011;4197;42.130;24.746;2023-12-07T03:15:16;29.33;;;18.20;;
8319;SDS011;4197;42.130;24.746;2023-12-07T03:17:44;29.60;;;18.47;;
8319;SDS011;4197;42.130;24.746;2023-12-07T03:20:14;36.23;;;20.23;;
8319;SDS011;4197;42.130;24.746;2023-12-07T03:22:42;38.13;;;23.67;;
8319;SDS011;4197;42.130;24.746;2023-12-07T03:25:11;37.47;;;21.37;;
8319;SDS011;4197;42.130;24.746;2023-12-07T03:27:39;46.70;;;21.70;;
8319;SDS011;4197;42.130;24.746;2023-12-07T03:30:08;33.07;;;19.93;;
8319;SDS011;4197;42.130;24.746;2023-12-07T03:32:38;42.93;;;21.27;;
8319;SDS011;4197;42.130;24.746;2023-12-07T03:35:09;46.20;;;27.07;;
8319;SDS011;4197;42.130;24.746;2023-12-07T03:37:39;44.87;;;23.67;;
8319;SDS011;4197;42.130;24.746;2023-12-07T03:40:08;45.80;;;23.67;;
8319;SDS011;4197;42.130;24.746;2023-12-07T03:42:37;52.27;;;26.73;;
8319;SDS011;4197;42.130;24.746;2023-12-07T03:45:21;42.23;;;25.03;;
8319;SDS011;4197;42.130;24.746;2023-12-07T03:47:50;38.93;;;23.07;;
8319;SDS011;4197;42.130;24.746;2023-12-07T03:50:18;38.57;;;23.20;;
8319;SDS011;4197;42.130;24.746;2023-12-07T03:52:49;39.23;;;23.60;;
8319;SDS011;4197;42.130;24.746;2023-12-07T03:55:17;38.77;;;21.93;;
8319;SDS011;4197;42.130;24.746;2023-12-07T03:57:45;52.53;;;28.53;;
8319;SDS011;4197;42.130;24.746;2023-12-07T04:00:14;47.27;;;25.83;;
8319;SDS011;4197;42.130;24.746;2023-12-07T04:02:43;43.90;;;25.50;;
8319;SDS011;4197;42.130;24.746;2023-12-07T04:05:10;49.37;;;28.30;;
8319;SDS011;4197;42.130;24.746;2023-12-07T04:07:39;42.53;;;25.07;;
8319;SDS011;4197;42.130;24.746;2023-12-07T04:10:10;43.17;;;25.47;;
8319;SDS011;4197;42.130;24.746;2023-12-07T04:12:39;41.63;;;25.27;;
8319;SDS011;4197;42.130;24.746;2023-12-07T04:15:07;40.37;;;22.13;;
8319;SDS011;4197;42.130;24.746;2023-12-07T04:17:36;39.07;;;23.37;;
8319;SDS011;4197;42.130;24.746;2023-12-07T04:20:05;45.30;;;24.50;;
8319;SDS011;4197;42.130;24.746;2023-12-07T04:22:34;44.13;;;24.63;;
8319;SDS011;4197;42.130;24.746;2023-12-07T04:25:03;40.00;;;23.90;;
8319;SDS011;4197;42.130;24.746;2023-12-07T04:27:35;40.37;;;24.73;;
8319;SDS011;4197;42.130;24.746;2023-12-07T04:30:04;43.13;;;23.93;;
8319;SDS011;4197;42.130;24.746;2023-12-07T04:32:33;41.97;;;25.10;;
8319;SDS011;4197;42.130;24.746;2023-12-07T04:35:01;43.80;;;24.30;;
8319;SDS011;4197;42.130;24.746;2023-12-07T04:37:30;40.80;;;24.37;;
8319;SDS011;4197;42.130;24.746;2023-12-07T04:39:58;44.60;;;24.63;;
8319;SDS011;4197;42.130;24.746;2023-12-07T04:42:26;43.83;;;25.03;;
8319;SDS011;4197;42.130;24.746;2023-12-07T04:44:56;59.23;;;32.23;;
8319;SDS011;4197;42.130;24.746;2023-12-07T04:47:24;56.17;;;32.17;;
8319;SDS011;4197;42.130;24.746;2023-12-07T04:49:54;50.40;;;28.20;;
8319;SDS011;4197;42.130;24.746;2023-12-07T04:52:22;45.60;;;27.83;;
8319;SDS011;4197;42.130;24.746;2023-12-07T04:54:51;51.57;;;30.43;;
8319;SDS011;4197;42.130;24.746;2023-12-07T04:57:19;48.77;;;29.03;;
8319;SDS011;4197;42.130;24.746;2023-12-07T04:59:48;54.03;;;30.33;;
8319;SDS011;4197;42.130;24.746;2023-12-07T05:02:17;51.53;;;29.50;;
8319;SDS011;4197;42.130;24.746;2023-12-07T05:04:46;48.33;;;28.33;;
8319;SDS011;4197;42.130;24.746;2023-12-07T05:07:15;53.77;;;30.80;;
8319;SDS011;4197;42.130;24.746;2023-12-07T05:09:43;56.33;;;31.43;;
8319;SDS011;4197;42.130;24.746;2023-12-07T05:12:12;52.80;;;30.47;;
8319;SDS011;4197;42.130;24.746;2023-12-07T05:14:41;57.90;;;31.47;;
8319;SDS011;4197;42.130;24.746;2023-12-07T05:17:09;58.07;;;31.20;;
8319;SDS011;4197;42.130;24.746;2023-12-07T05:19:39;57.70;;;32.30;;
8319;SDS011;4197;42.130;24.746;2023-12-07T05:22:08;59.17;;;31.17;;
8319;SDS011;4197;42.130;24.746;2023-12-07T05:24:36;51.33;;;29.80;;
8319;SDS011;4197;42.130;24.746;2023-12-07T05:27:04;52.67;;;30.47;;
8319;SDS011;4197;42.130;24.746;2023-12-07T05:29:33;58.80;;;31.47;;
8319;SDS011;4197;42.130;24.746;2023-12-07T05:32:03;58.57;;;32.00;;
8319;SDS011;4197;42.130;24.746;2023-12-07T05:34:35;59.03;;;32.63;;
8319;SDS011;4197;42.130;24.746;2023-12-07T05:37:05;55.10;;;31.73;;
8319;SDS011;4197;42.130;24.746;2023-12-07T05:39:33;65.77;;;35.80;;
8319;SDS011;4197;42.130;24.746;2023-12-07T05:42:02;62.50;;;34.00;;
8319;SDS011;4197;42.130;24.746;2023-12-07T05:44:31;60.60;;;32.30;;
8319;SDS011;4197;42.130;24.746;2023-12-07T05:47:00;65.47;;;35.23;;
8319;SDS011;4197;42.130;24.746;2023-12-07T05:49:28;68.07;;;34.40;;
8319;SDS011;4197;42.130;24.746;2023-12-07T05:51:57;65.27;;;35.90;;
8319;SDS011;4197;42.130;24.746;2023-12-07T05:54:26;64.67;;;33.67;;
8319;SDS011;4197;42.130;24.746;2023-12-07T05:56:55;67.50;;;36.70;;
8319;SDS011;4197;42.130;24.746;2023-12-07T05:59:23;63.57;;;34.67;;
8319;SDS011;4197;42.130;24.746;2023-12-07T06:01:51;67.57;;;36.43;;
8319;SDS011;4197;42.130;24.746;2023-12-07T06:04:21;81.20;;;47.90;;
8319;SDS011;4197;42.130;24.746;2023-12-07T06:06:49;77.30;;;45.60;;
8319;SDS011;4197;42.130;24.746;2023-12-07T06:09:17;70.87;;;39.53;;
8319;SDS011;4197;42.130;24.746;2023-12-07T06:11:48;71.67;;;39.27;;
8319;SDS011;4197;42.130;24.746;2023-12-07T06:14:18;67.93;;;41.20;;
8319;SDS011;4197;42.130;24.746;2023-12-07T06:16:46;70.43;;;39.43;;
8319;SDS011;4197;42.130;24.746;2023-12-07T06:19:15;74.33;;;40.97;;
8319;SDS011;4197;42.130;24.746;2023-12-07T06:21:43;62.53;;;38.00;;
8319;SDS011;4197;42.130;24.746;2023-12-07T06:24:12;69.77;;;40.87;;
8319;SDS011;4197;42.130;24.746;2023-12-07T06:26:41;62.50;;;34.47;;
8319;SDS011;4197;42.130;24.746;2023-12-07T06:29:11;58.80;;;34.87;;
8319;SDS011;4197;42.130;24.746;2023-12-07T06:31:42;93.63;;;60.00;;
8319;SDS011;4197;42.130;24.746;2023-12-07T06:34:11;85.20;;;46.80;;
8319;SDS011;4197;42.130;24.746;2023-12-07T06:36:39;74.97;;;42.60;;
8319;SDS011;4197;42.130;24.746;2023-12-07T06:39:08;80.00;;;43.27;;
8319;SDS011;4197;42.130;24.746;2023-12-07T06:41:36;69.80;;;41.80;;
8319;SDS011;4197;42.130;24.746;2023-12-07T06:44:05;74.27;;;42.87;;
8319;SDS011;4197;42.130;24.746;2023-12-07T06:46:36;79.30;;;42.43;;
8319;SDS011;4197;42.130;24.746;2023-12-07T06:49:06;66.53;;;39.33;;
8319;SDS011;4197;42.130;24.746;2023-12-07T06:51:34;66.87;;;38.17;;
8319;SDS011;4197;42.130;24.746;2023-12-07T06:54:02;73.63;;;41.27;;
8319;SDS011;4197;42.130;24.746;2023-12-07T06:56:31;71.93;;;40.43;;
8319;SDS011;4197;42.130;24.746;2023-12-07T06:58:59;59.40;;;36.37;;
8319;SDS011;4197;42.130;24.746;2023-12-07T07:01:27;63.63;;;36.17;;
8319;SDS011;4197;42.130;24.746;2023-12-07T07:03:58;85.17;;;45.20;;
8319;SDS011;4197;42.130;24.746;2023-12-07T07:06:27;68.00;;;41.20;;
8319;SDS011;4197;42.130;24.746;2023-12-07T07:08:56;65.47;;;39.97;;
8319;SDS011;4197;42.130;24.746;2023-12-07T07:11:26;58.93;;;35.23;;
8319;SDS011;4197;42.130;24.746;2023-12-07T07:13:55;63.73;;;39.50;;
8319;SDS011;4197;42.130;24.746;2023-12-07T07:16:23;49.23;;;33.37;;
8319;SDS011;4197;42.130;24.746;2023-12-07T07:18:52;51.70;;;32.17;;
8319;SDS011;4197;42.130;24.746;2023-12-07T07:21:21;47.13;;;32.13;;
8319;SDS011;4197;42.130;24.746;2023-12-07T07:23:50;71.33;;;54.33;;
8319;SDS011;4197;42.130;24.746;2023-12-07T07:26:18;56.03;;;39.83;;
8319;SDS011;4197;42.130;24.746;2023-12-07T07:28:47;47.10;;;33.13;;
8319;SDS011;4197;42.130;24.746;2023-12-07T07:31:16;43.07;;;29.43;;
8319;SDS011;4197;42.130;24.746;2023-12-07T07:33:45;44.73;;;28.27;;
8319;SDS011;4197;42.130;24.746;2023-12-07T07:36:27;68.23;;;42.93;;
8319;SDS011;4197;42.130;24.746;2023-12-07T07:38:55;47.33;;;32.03;;
8319;SDS011;4197;42.130;24.746;2023-12-07T07:41:23;60.30;;;39.87;;
8319;SDS011;4197;42.130;24.746;2023-12-07T07:43:52;43.90;;;29.50;;
8319;SDS011;4197;42.130;24.746;2023-12-07T07:46:20;43.33;;;29.40;;
8319;SDS011;4197;42.130;24.746;2023-12-07T07:48:48;41.17;;;27.67;;
8319;SDS011;4197;42.130;24.746;2023-12-07T07:51:17;36.63;;;26.93;;
8319;SDS011;4197;42.130;24.746;2023-12-07T07:53:47;41.30;;;26.80;;
8319;SDS011;4197;42.130;24.746;2023-12-07T07:56:15;42.27;;;27.77;;
8319;SDS011;4197;42.130;24.746;2023-12-07T07:58:43;44.30;;;29.37;;
8319;SDS011;4197;42.130;24.746;2023-12-07T08:01:12;40.70;;;28.00;;
8319;SDS011;4197;42.130;24.746;2023-12-07T08:03:42;42.57;;;28.97;;
8319;SDS011;4197;42.130;24.746;2023-12-07T08:06:10;39.70;;;27.83;;
8319;SDS011;4197;42.130;24.746;2023-12-07T08:08:40;46.37;;;30.90;;
8319;SDS011;4197;42.130;24.746;2023-12-07T08:11:10;39.27;;;28.33;;
8319;SDS011;4197;42.130;24.746;2023-12-07T08:13:38;49.03;;;29.17;;
8319;SDS011;4197;42.130;24.746;2023-12-07T08:16:07;46.93;;;28.23;;
8319;SDS011;4197;42.130;24.746;2023-12-07T08:18:36;44.80;;;29.60;;
8319;SDS011;4197;42.130;24.746;2023-12-07T08:21:04;45.80;;;28.50;;
8319;SDS011;4197;42.130;24.746;2023-12-07T08:23:35;42.40;;;28.67;;
8319;SDS011;4197;42.130;24.746;2023-12-07T08:26:03;41.80;;;28.93;;
8319;SDS011;4197;42.130;24.746;2023-12-07T08:28:33;41.00;;;27.73;;
8319;SDS011;4197;42.130;24.746;2023-12-07T08:31:03;42.90;;;28.20;;
8319;SDS011;4197;42.130;24.746;2023-12-07T08:33:31;41.07;;;28.53;;
8319;SDS011;4197;42.130;24.746;2023-12-07T08:36:01;38.70;;;25.87;;
8319;SDS011;4197;42.130;24.746;2023-12-07T08:38:29;39.10;;;26.10;;
8319;SDS011;4197;42.130;24.746;2023-12-07T08:40:58;39.43;;;25.10;;
8319;SDS011;4197;42.130;24.746;2023-12-07T08:43:27;34.10;;;22.97;;
8319;SDS011;4197;42.130;24.746;2023-12-07T08:45:58;31.60;;;23.37;;
8319;SDS011;4197;42.130;24.746;2023-12-07T08:48:27;33.77;;;22.60;;
8319;SDS011;4197;42.130;24.746;2023-12-07T08:50:56;31.67;;;22.33;;
8319;SDS011;4197;42.130;24.746;2023-12-07T08:53:24;29.00;;;20.53;;
8319;SDS011;4197;42.130;24.746;2023-12-07T08:55:53;30.37;;;22.87;;
8319;SDS011;4197;42.130;24.746;2023-12-07T08:58:22;31.53;;;21.37;;
8319;SDS011;4197;42.130;24.746;2023-12-07T09:00:51;32.43;;;21.90;;
8319;SDS011;4197;42.130;24.746;2023-12-07T09:03:21;29.97;;;21.10;;
8319;SDS011;4197;42.130;24.746;2023-12-07T09:05:54;33.17;;;21.33;;
8319;SDS011;4197;42.130;24.746;2023-12-07T09:08:24;29.27;;;22.13;;
8319;SDS011;4197;42.130;24.746;2023-12-07T09:10:54;33.10;;;23.07;;
8319;SDS011;4197;42.130;24.746;2023-12-07T09:13:23;32.20;;;22.10;;
8319;SDS011;4197;42.130;24.746;2023-12-07T09:15:51;32.07;;;20.53;;
8319;SDS011;4197;42.130;24.746;2023-12-07T09:18:22;28.63;;;21.33;;
8319;SDS011;4197;42.130;24.746;2023-12-07T09:20:51;34.33;;;23.07;;
8319;SDS011;4197;42.130;24.746;2023-12-07T09:23:20;33.90;;;22.37;;
8319;SDS011;4197;42.130;24.746;2023-12-07T09:25:48;34.40;;;22.90;;
8319;SDS011;4197;42.130;24.746;2023-12-07T09:28:17;32.50;;;21.43;;
8319;SDS011;4197;42.130;24.746;2023-12-07T09:30:45;27.87;;;20.37;;
8319;SDS011;4197;42.130;24.746;2023-12-07T09:33:13;29.57;;;20.37;;
8319;SDS011;4197;42.130;24.746;2023-12-07T09:35:46;29.13;;;19.77;;
8319;SDS011;4197;42.130;24.746;2023-12-07T09:38:17;28.60;;;20.13;;
8319;SDS011;4197;42.130;24.746;2023-12-07T09:40:52;28.10;;;19.43;;
8319;SDS011;4197;42.130;24.746;2023-12-07T09:43:21;26.53;;;18.57;;
8319;SDS011;4197;42.130;24.746;2023-12-07T09:45:50;26.43;;;19.40;;
8319;SDS011;4197;42.130;24.746;2023-12-07T09:48:22;27.53;;;19.57;;
8319;SDS011;4197;42.130;24.746;2023-12-07T09:50:55;23.70;;;17.20;;
8319;SDS011;4197;42.130;24.746;2023-12-07T09:53:24;26.47;;;16.80;;
8319;SDS011;4197;42.130;24.746;2023-12-07T09:55:53;23.47;;;15.47;;
8319;SDS011;4197;42.130;24.746;2023-12-07T09:58:22;22.70;;;14.27;;
8319;SDS011;4197;42.130;24.746;2023-12-07T10:01:04;19.70;;;13.83;;
8319;SDS011;4197;42.130;24.746;2023-12-07T10:03:33;21.87;;;15.07;;
8319;SDS011;4197;42.130;24.746;2023-12-07T10:06:04;23.63;;;15.40;;
8319;SDS011;4197;42.130;24.746;2023-12-07T10:08:33;17.57;;;12.93;;
8319;SDS011;4197;42.130;24.746;2023-12-07T10:11:04;16.97;;;12.13;;
8319;SDS011;4197;42.130;24.746;2023-12-07T10:13:34;16.73;;;12.50;;
8319;SDS011;4197;42.130;24.746;2023-12-07T10:16:05;17.20;;;12.27;;
8319;SDS011;4197;42.130;24.746;2023-12-07T10:18:38;19.70;;;13.10;;
8319;SDS011;4197;42.130;24.746;2023-12-07T10:21:12;15.93;;;12.23;;
8319;SDS011;4197;42.130;24.746;2023-12-07T10:23:41;18.20;;;13.57;;
8319;SDS011;4197;42.130;24.746;2023-12-07T10:26:16;18.17;;;13.10;;
8319;SDS011;4197;42.130;24.746;2023-12-07T10:28:48;21.33;;;15.27;;
8319;SDS011;4197;42.130;24.746;2023-12-07T10:31:22;24.87;;;14.33;;
8319;SDS011;4197;42.130;24.746;2023-12-07T10:33:51;19.33;;;13.37;;
8319;SDS011;4197;42.130;24.746;2023-12-07T10:36:22;18.67;;;14.37;;
8319;SDS011;4197;42.130;24.746;2023-12-07T10:39:10;23.67;;;14.20;;
8319;SDS011;4197;42.130;24.746;2023-12-07T10:41:46;22.27;;;13.33;;
8319;SDS011;4197;42.130;24.746;2023-12-07T10:44:18;17.50;;;11.57;;
8319;SDS011;4197;42.130;24.746;2023-12-07T10:46:49;16.47;;;11.20;;
8319;SDS011;4197;42.130;24.746;2023-12-07T10:49:19;16.70;;;11.80;;
8319;SDS011;4197;42.130;24.746;2023-12-07T10:52:03;19.23;;;12.77;;
8319;SDS011;4197;42.130;24.746;2023-12-07T10:54:38;17.97;;;11.63;;
8319;SDS011;4197;42.130;24.746;2023-12-07T10:57:11;18.23;;;11.57;;
8319;SDS011;4197;42.130;24.746;2023-12-07T10:59:42;18.33;;;12.27;;
8319;SDS011;4197;42.130;24.746;2023-12-07T11:02:12;14.57;;;11.43;;
8319;SDS011;4197;42.130;24.746;2023-12-07T11:04:45;20.17;;;15.07;;
8319;SDS011;4197;42.130;24.746;2023-12-07T11:07:16;17.63;;;11.90;;
8319;SDS011;4197;42.130;24.746;2023-12-07T11:09:51;20.20;;;11.53;;
8319;SDS011;4197;42.130;24.746;2023-12-07T11:12:28;19.10;;;12.20;;
8319;SDS011;4197;42.130;24.746;2023-12-07T11:15:01;18.93;;;12.90;;
8319;SDS011;4197;42.130;24.746;2023-12-07T11:17:41;23.10;;;13.07;;
8319;SDS011;4197;42.130;24.746;2023-12-07T11:20:18;17.13;;;10.30;;
8319;SDS011;4197;42.130;24.746;2023-12-07T11:22:48;15.03;;;11.17;;
8319;SDS011;4197;42.130;24.746;2023-12-07T11:25:19;18.33;;;12.10;;
8319;SDS011;4197;42.130;24.746;2023-12-07T11:27:48;17.50;;;12.20;;
8319;SDS011;4197;42.130;24.746;2023-12-07T11:30:27;16.40;;;11.37;;
8319;SDS011;4197;42.130;24.746;2023-12-07T11:32:58;20.40;;;12.13;;
8319;SDS011;4197;42.130;24.746;2023-12-07T11:35:27;17.53;;;11.30;;
8319;SDS011;4197;42.130;24.746;2023-12-07T11:38:03;15.07;;;11.23;;
8319;SDS011;4197;42.130;24.746;2023-12-07T11:40:37;20.83;;;11.97;;
8319;SDS011;4197;42.130;24.746;2023-12-07T11:43:16;14.93;;;11.60;;
8319;SDS011;4197;42.130;24.746;2023-12-07T11:45:46;18.30;;;11.83;;
8319;SDS011;4197;42.130;24.746;2023-12-07T11:48:16;17.97;;;11.73;;
8319;SDS011;4197;42.130;24.746;2023-12-07T11:50:53;15.77;;;11.20;;
8319;SDS011;4197;42.130;24.746;2023-12-07T11:53:25;15.80;;;11.03;;
8319;SDS011;4197;42.130;24.746;2023-12-07T11:55:56;16.60;;;11.47;;
8319;SDS011;4197;42.130;24.746;2023-12-07T11:58:25;16.13;;;10.40;;
8319;SDS011;4197;42.130;24.746;2023-12-07T12:00:54;16.50;;;10.23;;
8319;SDS011;4197;42.130;24.746;2023-12-07T12:03:23;14.10;;;9.50;;
8319;SDS011;4197;42.130;24.746;2023-12-07T12:05:53;15.77;;;10.50;;
8319;SDS011;4197;42.130;24.746;2023-12-07T12:08:25;16.30;;;9.83;;
8319;SDS011;4197;42.130;24.746;2023-12-07T12:10:53;13.13;;;10.10;;
8319;SDS011;4197;42.130;24.746;2023-12-07T12:13:26;18.77;;;10.90;;
8319;SDS011;4197;42.130;24.746;2023-12-07T12:15:56;17.17;;;10.20;;
8319;SDS011;4197;42.130;24.746;2023-12-07T12:18:30;16.77;;;10.27;;
8319;SDS011;4197;42.130;24.746;2023-12-07T12:21:00;15.17;;;10.27;;
8319;SDS011;4197;42.130;24.746;2023-12-07T12:23:30;14.87;;;9.97;;
8319;SDS011;4197;42.130;24.746;2023-12-07T12:25:58;21.47;;;9.87;;
8319;SDS011;4197;42.130;24.746;2023-12-07T12:28:27;16.73;;;10.53;;
8319;SDS011;4197;42.130;24.746;2023-12-07T12:30:59;17.10;;;10.87;;
8319;SDS011;4197;42.130;24.746;2023-12-07T12:33:28;18.77;;;12.07;;
8319;SDS011;4197;42.130;24.746;2023-12-07T12:36:00;16.53;;;10.70;;
8319;SDS011;4197;42.130;24.746;2023-12-07T12:38:33;17.43;;;11.27;;
8319;SDS011;4197;42.130;24.746;2023-12-07T12:41:09;14.60;;;10.73;;
8319;SDS011;4197;42.130;24.746;2023-12-07T12:43:38;17.30;;;11.37;;
8319;SDS011;4197;42.130;24.746;2023-12-07T12:46:07;17.23;;;11.17;;
8319;SDS011;4197;42.130;24.746;2023-12-07T12:48:38;22.83;;;12.37;;
8319;SDS011;4197;42.130;24.746;2023-12-07T12:51:22;16.27;;;11.07;;
8319;SDS011;4197;42.130;24.746;2023-12-07T12:53:54;17.37;;;11.60;;
8319;SDS011;4197;42.130;24.746;2023-12-07T12:56:25;16.73;;;11.10;;
8319;SDS011;4197;42.130;24.746;2023-12-07T12:59:08;20.10;;;12.33;;
8319;SDS011;4197;42.130;24.746;2023-12-07T13:01:37;19.07;;;12.43;;
8319;SDS011;4197;42.130;24.746;2023-12-07T13:04:05;19.80;;;12.00;;
8319;SDS011;4197;42.130;24.746;2023-12-07T13:06:33;20.60;;;12.20;;
8319;SDS011;4197;42.130;24.746;2023-12-07T13:09:07;19.90;;;12.53;;
8319;SDS011;4197;42.130;24.746;2023-12-07T13:11:35;19.80;;;12.50;;
8319;SDS011;4197;42.130;24.746;2023-12-07T13:14:03;15.63;;;11.10;;
8319;SDS011;4197;42.130;24.746;2023-12-07T13:16:35;20.63;;;11.83;;
8319;SDS011;4197;42.130;24.746;2023-12-07T13:19:04;14.87;;;10.97;;
8319;SDS011;4197;42.130;24.746;2023-12-07T13:21:33;15.70;;;10.07;;
8319;SDS011;4197;42.130;24.746;2023-12-07T13:24:02;20.60;;;13.17;;
8319;SDS011;4197;42.130;24.746;2023-12-07T13:26:33;21.70;;;13.13;;
8319;SDS011;4197;42.130;24.746;2023-12-07T13:29:02;19.83;;;13.17;;
8319;SDS011;4197;42.130;24.746;2023-12-07T13:31:30;24.90;;;14.07;;
8319;SDS011;4197;42.130;24.746;2023-12-07T13:33:58;22.03;;;13.93;;
8319;SDS011;4197;42.130;24.746;2023-12-07T13:36:32;27.17;;;16.27;;
8319;SDS011;4197;42.130;24.746;2023-12-07T13:39:01;29.90;;;17.33;;
8319;SDS011;4197;42.130;24.746;2023-12-07T13:41:30;21.23;;;13.20;;
8319;SDS011;4197;42.130;24.746;2023-12-07T13:44:01;24.53;;;14.87;;
8319;SDS011;4197;42.130;24.746;2023-12-07T13:46:32;21.67;;;14.70;;
8319;SDS011;4197;42.130;24.746;2023-12-07T13:49:01;28.13;;;17.57;;
8319;SDS011;4197;42.130;24.746;2023-12-07T13:51:30;28.53;;;18.83;;
8319;SDS011;4197;42.130;24.746;2023-12-07T13:54:00;33.23;;;20.43;;
8319;SDS011;4197;42.130;24.746;2023-12-07T13:56:28;28.43;;;19.37;;
8319;SDS011;4197;42.130;24.746;2023-12-07T13:58:57;33.07;;;20.43;;
8319;SDS011;4197;42.130;24.746;2023-12-07T14:01:27;42.53;;;24.27;;
8319;SDS011;4197;42.130;24.746;2023-12-07T14:03:55;38.77;;;24.30;;
8319;SDS011;4197;42.130;24.746;2023-12-07T14:06:24;38.80;;;25.30;;
8319;SDS011;4197;42.130;24.746;2023-12-07T14:08:55;35.97;;;22.90;;
8319;SDS011;4197;42.130;24.746;2023-12-07T14:11:24;43.73;;;26.67;;
8319;SDS011;4197;42.130;24.746;2023-12-07T14:13:52;39.60;;;26.67;;
8319;SDS011;4197;42.130;24.746;2023-12-07T14:16:21;41.57;;;27.20;;
8319;SDS011;4197;42.130;24.746;2023-12-07T14:19:12;35.97;;;23.80;;
8319;SDS011;4197;42.130;24.746;2023-12-07T14:21:45;45.37;;;27.97;;
8319;SDS011;4197;42.130;24.746;2023-12-07T14:24:21;38.40;;;25.87;;
8319;SDS011;4197;42.130;24.746;2023-12-07T14:26:51;36.50;;;24.70;;
8319;SDS011;4197;42.130;24.746;2023-12-07T14:29:20;48.50;;;29.07;;
8319;SDS011;4197;42.130;24.746;2023-12-07T14:31:53;42.90;;;29.07;;
8319;SDS011;4197;42.130;24.746;2023-12-07T14:34:23;42.97;;;28.50;;
8319;SDS011;4197;42.130;24.746;2023-12-07T14:36:57;38.63;;;26.40;;
8319;SDS011;4197;42.130;24.746;2023-12-07T14:39:25;39.17;;;27.57;;
8319;SDS011;4197;42.130;24.746;2023-12-07T14:41:54;42.70;;;28.10;;
8319;SDS011;4197;42.130;24.746;2023-12-07T14:44:23;35.33;;;21.17;;
8319;SDS011;4197;42.130;24.746;2023-12-07T14:46:55;26.17;;;18.23;;
8319;SDS011;4197;42.130;24.746;2023-12-07T14:49:26;29.27;;;17.53;;
8319;SDS011;4197;42.130;24.746;2023-12-07T14:51:55;28.23;;;17.87;;